sensor_id;sensor_type;location;lat;lon;timestamp;pressure;altitude;pressure_sealevel;temperature;humidity
10881;BME280;5493;48.884;8.338;2022-12-07T00:01:16;100434.31;;;6.56;100.00
10881;BME280;5493;48.884;8.338;2022-12-07T00:03:45;100430.41;;;6.59;100.00
10881;BME280;5493;48.884;8.338;2022-12-07T00:06:13;100430.81;;;6.56;100.00
10881;BME280;5493;48.884;8.338;2022-12-07T00:08:40;100436.84;;;6.43;100.00
10881;BME280;5493;48.884;8.338;2022-12-07T00:11:08;100430.19;;;6.54;100.00
10881;BME280;5493;48.884;8.338;2022-12-07T00:13:36;100428.41;;;6.61;100.00
10881;BME280;5493;48.884;8.338;2022-12-07T00:16:07;100421.19;;;6.61;100.00
10881;BME280;5493;48.884;8.338;2022-12-07T00:18:34;100429.22;;;6.40;100.00
10881;BME280;5493;48.884;8.338;2022-12-07T00:21:02;100423.34;;;6.51;100.00
10881;BME280;5493;48.884;8.338;2022-12-07T00:23:29;100425.31;;;6.42;100.00
10881;BME280;5493;48.884;8.338;2022-12-07T00:25:56;100421.69;;;6.50;100.00
10881;BME280;5493;48.884;8.338;2022-12-07T00:28:22;100420.66;;;6.51;100.00
10881;BME280;5493;48.884;8.338;2022-12-07T00:30:49;100424.97;;;6.31;100.00
10881;BME280;5493;48.884;8.338;2022-12-07T00:33:17;100429.47;;;6.45;100.00
10881;BME280;5493;48.884;8.338;2022-12-07T00:35:43;100424.09;;;6.45;100.00
10881;BME280;5493;48.884;8.338;2022-12-07T00:38:10;100425.91;;;6.59;100.00
10881;BME280;5493;48.884;8.338;2022-12-07T00:40:36;100423.56;;;6.71;100.00
10881;BME280;5493;48.884;8.338;2022-12-07T00:43:03;100424.19;;;6.73;100.00
10881;BME280;5493;48.884;8.338;2022-12-07T00:45:29;100426.50;;;6.76;100.00
10881;BME280;5493;48.884;8.338;2022-12-07T00:47:56;100418.13;;;6.64;100.00
10881;BME280;5493;48.884;8.338;2022-12-07T00:50:24;100424.66;;;6.76;100.00
10881;BME280;5493;48.884;8.338;2022-12-07T00:52:50;100418.97;;;6.86;100.00
10881;BME280;5493;48.884;8.338;2022-12-07T00:55:17;100416.47;;;6.84;100.00
10881;BME280;5493;48.884;8.338;2022-12-07T00:57:43;100420.34;;;6.82;100.00
10881;BME280;5493;48.884;8.338;2022-12-07T01:00:10;100415.31;;;6.93;100.00
10881;BME280;5493;48.884;8.338;2022-12-07T01:02:37;100415.28;;;6.87;100.00
10881;BME280;5493;48.884;8.338;2022-12-07T01:05:04;100409.47;;;6.83;100.00
10881;BME280;5493;48.884;8.338;2022-12-07T01:07:32;100406.84;;;6.90;100.00
10881;BME280;5493;48.884;8.338;2022-12-07T01:09:59;100408.88;;;6.88;100.00
10881;BME280;5493;48.884;8.338;2022-12-07T01:12:25;100413.91;;;6.98;100.00
10881;BME280;5493;48.884;8.338;2022-12-07T01:14:52;100415.09;;;6.95;100.00
10881;BME280;5493;48.884;8.338;2022-12-07T01:17:19;100413.91;;;6.98;100.00
10881;BME280;5493;48.884;8.338;2022-12-07T01:19:45;100419.28;;;6.98;100.00
10881;BME280;5493;48.884;8.338;2022-12-07T01:22:12;100411.28;;;7.04;100.00
10881;BME280;5493;48.884;8.338;2022-12-07T01:24:40;100415.44;;;6.85;100.00
10881;BME280;5493;48.884;8.338;2022-12-07T01:27:06;100421.88;;;6.91;100.00
10881;BME280;5493;48.884;8.338;2022-12-07T01:29:33;100424.06;;;6.81;100.00
10881;BME280;5493;48.884;8.338;2022-12-07T01:31:59;100420.75;;;6.58;100.00
10881;BME280;5493;48.884;8.338;2022-12-07T01:34:26;100424.00;;;6.74;100.00
10881;BME280;5493;48.884;8.338;2022-12-07T01:36:52;100426.34;;;6.63;100.00
10881;BME280;5493;48.884;8.338;2022-12-07T01:39:19;100434.31;;;6.56;100.00
10881;BME280;5493;48.884;8.338;2022-12-07T01:41:47;100426.72;;;6.60;100.00
10881;BME280;5493;48.884;8.338;2022-12-07T01:44:17;100434.31;;;6.56;100.00
10881;BME280;5493;48.884;8.338;2022-12-07T01:46:46;100431.31;;;6.66;100.00
10881;BME280;5493;48.884;8.338;2022-12-07T01:49:16;100428.84;;;6.64;100.00
10881;BME280;5493;48.884;8.338;2022-12-07T01:51:46;100421.44;;;6.66;100.00
10881;BME280;5493;48.884;8.338;2022-12-07T01:54:15;100424.13;;;6.66;100.00
10881;BME280;5493;48.884;8.338;2022-12-07T01:56:45;100423.38;;;6.72;100.00
10881;BME280;5493;48.884;8.338;2022-12-07T01:59:18;100425.22;;;6.72;100.00
10881;BME280;5493;48.884;8.338;2022-12-07T02:01:46;100426.06;;;6.72;100.00
10881;BME280;5493;48.884;8.338;2022-12-07T02:04:12;100420.53;;;6.59;100.00
10881;BME280;5493;48.884;8.338;2022-12-07T02:06:40;100422.66;;;6.64;100.00
10881;BME280;5493;48.884;8.338;2022-12-07T02:09:08;100421.94;;;6.55;100.00
10881;BME280;5493;48.884;8.338;2022-12-07T02:11:34;100416.56;;;6.34;100.00
10881;BME280;5493;48.884;8.338;2022-12-07T02:14:01;100429.84;;;6.42;100.00
10881;BME280;5493;48.884;8.338;2022-12-07T02:16:36;100421.00;;;6.27;100.00
10881;BME280;5493;48.884;8.338;2022-12-07T02:19:24;100417.28;;;6.07;100.00
10881;BME280;5493;48.884;8.338;2022-12-07T02:22:02;100413.06;;;6.19;100.00
10881;BME280;5493;48.884;8.338;2022-12-07T02:24:47;100405.94;;;6.26;100.00
10881;BME280;5493;48.884;8.338;2022-12-07T02:27:38;100403.63;;;6.37;100.00
10881;BME280;5493;48.884;8.338;2022-12-07T02:30:10;100396.97;;;6.33;100.00
10881;BME280;5493;48.884;8.338;2022-12-07T02:32:43;100399.22;;;6.30;100.00
10881;BME280;5493;48.884;8.338;2022-12-07T02:35:12;100389.53;;;6.29;100.00
10881;BME280;5493;48.884;8.338;2022-12-07T02:37:48;100396.72;;;6.28;100.00
10881;BME280;5493;48.884;8.338;2022-12-07T02:40:21;100392.06;;;6.37;100.00
10881;BME280;5493;48.884;8.338;2022-12-07T02:42:53;100402.25;;;6.27;100.00
10881;BME280;5493;48.884;8.338;2022-12-07T02:45:25;100394.66;;;6.09;100.00
10881;BME280;5493;48.884;8.338;2022-12-07T02:47:56;100399.97;;;6.24;100.00
10881;BME280;5493;48.884;8.338;2022-12-07T02:50:24;100394.72;;;6.16;100.00
10881;BME280;5493;48.884;8.338;2022-12-07T02:52:51;100390.94;;;6.25;100.00
10881;BME280;5493;48.884;8.338;2022-12-07T02:55:19;100398.66;;;6.34;100.00
10881;BME280;5493;48.884;8.338;2022-12-07T02:57:57;100397.44;;;6.37;100.00
10881;BME280;5493;48.884;8.338;2022-12-07T03:00:31;100400.31;;;6.35;100.00
10881;BME280;5493;48.884;8.338;2022-12-07T03:03:05;100406.16;;;6.24;100.00
10881;BME280;5493;48.884;8.338;2022-12-07T03:05:49;100393.25;;;6.13;100.00
10881;BME280;5493;48.884;8.338;2022-12-07T03:08:24;100390.63;;;5.99;100.00
10881;BME280;5493;48.884;8.338;2022-12-07T03:10:58;100391.06;;;6.02;100.00
10881;BME280;5493;48.884;8.338;2022-12-07T03:13:29;100401.22;;;6.07;100.00
10881;BME280;5493;48.884;8.338;2022-12-07T03:16:02;100401.31;;;5.99;100.00
10881;BME280;5493;48.884;8.338;2022-12-07T03:18:34;100402.88;;;5.78;100.00
10881;BME280;5493;48.884;8.338;2022-12-07T03:21:06;100402.69;;;6.09;100.00
10881;BME280;5493;48.884;8.338;2022-12-07T03:23:36;100402.34;;;6.33;100.00
10881;BME280;5493;48.884;8.338;2022-12-07T03:26:05;100397.25;;;6.38;100.00
10881;BME280;5493;48.884;8.338;2022-12-07T03:28:37;100392.84;;;6.31;100.00
10881;BME280;5493;48.884;8.338;2022-12-07T03:31:13;100394.06;;;6.28;100.00
10881;BME280;5493;48.884;8.338;2022-12-07T03:33:45;100386.66;;;6.30;100.00
10881;BME280;5493;48.884;8.338;2022-12-07T03:36:19;100386.84;;;6.29;100.00
10881;BME280;5493;48.884;8.338;2022-12-07T03:38:51;100382.38;;;6.15;100.00
10881;BME280;5493;48.884;8.338;2022-12-07T03:41:22;100384.41;;;6.13;100.00
10881;BME280;5493;48.884;8.338;2022-12-07T03:43:50;100376.81;;;6.16;100.00
10881;BME280;5493;48.884;8.338;2022-12-07T03:46:21;100375.78;;;6.32;100.00
10881;BME280;5493;48.884;8.338;2022-12-07T03:48:55;100366.38;;;6.21;100.00
10881;BME280;5493;48.884;8.338;2022-12-07T03:51:27;100364.19;;;6.10;100.00
10881;BME280;5493;48.884;8.338;2022-12-07T03:53:59;100359.56;;;6.04;100.00
10881;BME280;5493;48.884;8.338;2022-12-07T03:56:29;100355.91;;;6.05;100.00
10881;BME280;5493;48.884;8.338;2022-12-07T03:58:56;100356.81;;;5.83;100.00
10881;BME280;5493;48.884;8.338;2022-12-07T04:01:24;100375.22;;;5.57;100.00
10881;BME280;5493;48.884;8.338;2022-12-07T04:03:51;100372.63;;;5.63;100.00
10881;BME280;5493;48.884;8.338;2022-12-07T04:06:18;100369.41;;;5.53;100.00
10881;BME280;5493;48.884;8.338;2022-12-07T04:08:44;100377.59;;;5.66;100.00
10881;BME280;5493;48.884;8.338;2022-12-07T04:11:11;100377.31;;;5.61;100.00
10881;BME280;5493;48.884;8.338;2022-12-07T04:13:38;100376.41;;;5.69;100.00
10881;BME280;5493;48.884;8.338;2022-12-07T04:16:18;100385.56;;;5.60;100.00
10881;BME280;5493;48.884;8.338;2022-12-07T04:18:46;100382.22;;;5.58;100.00
10881;BME280;5493;48.884;8.338;2022-12-07T04:21:13;100381.28;;;5.80;100.00
10881;BME280;5493;48.884;8.338;2022-12-07T04:23:39;100374.47;;;5.92;100.00
10881;BME280;5493;48.884;8.338;2022-12-07T04:26:06;100369.19;;;5.84;100.00
10881;BME280;5493;48.884;8.338;2022-12-07T04:28:33;100380.19;;;5.74;100.00
10881;BME280;5493;48.884;8.338;2022-12-07T04:30:59;100384.25;;;5.70;100.00
10881;BME280;5493;48.884;8.338;2022-12-07T04:33:26;100385.63;;;5.66;100.00
10881;BME280;5493;48.884;8.338;2022-12-07T04:35:54;100385.94;;;5.71;100.00
10881;BME280;5493;48.884;8.338;2022-12-07T04:38:20;100383.31;;;5.78;100.00
10881;BME280;5493;48.884;8.338;2022-12-07T04:40:47;100381.75;;;5.83;100.00
10881;BME280;5493;48.884;8.338;2022-12-07T04:43:13;100373.72;;;5.69;100.00
10881;BME280;5493;48.884;8.338;2022-12-07T04:45:45;100374.94;;;5.81;100.00
10881;BME280;5493;48.884;8.338;2022-12-07T04:48:12;100384.25;;;5.70;100.00
10881;BME280;5493;48.884;8.338;2022-12-07T04:50:39;100374.56;;;5.69;100.00
10881;BME280;5493;48.884;8.338;2022-12-07T04:53:06;100376.41;;;5.69;100.00
10881;BME280;5493;48.884;8.338;2022-12-07T04:55:33;100374.94;;;5.81;100.00
10881;BME280;5493;48.884;8.338;2022-12-07T04:58:00;100374.19;;;5.87;100.00
10881;BME280;5493;48.884;8.338;2022-12-07T05:00:26;100374.19;;;5.87;100.00
10881;BME280;5493;48.884;8.338;2022-12-07T05:02:53;100375.47;;;5.76;100.00
10881;BME280;5493;48.884;8.338;2022-12-07T05:05:19;100375.84;;;5.73;100.00
10881;BME280;5493;48.884;8.338;2022-12-07T05:07:46;100373.47;;;5.64;100.00
10881;BME280;5493;48.884;8.338;2022-12-07T05:10:14;100376.03;;;5.86;100.00
10881;BME280;5493;48.884;8.338;2022-12-07T05:12:40;100376.59;;;5.82;100.00
10881;BME280;5493;48.884;8.338;2022-12-07T05:15:07;100367.34;;;5.84;100.00
10881;BME280;5493;48.884;8.338;2022-12-07T05:17:34;100362.50;;;5.88;100.00
10881;BME280;5493;48.884;8.338;2022-12-07T05:20:01;100368.91;;;5.79;100.00
10881;BME280;5493;48.884;8.338;2022-12-07T05:22:27;100368.66;;;5.74;100.00
10881;BME280;5493;48.884;8.338;2022-12-07T05:24:54;100360.72;;;5.80;100.00
10881;BME280;5493;48.884;8.338;2022-12-07T05:27:22;100361.28;;;5.76;100.00
10881;BME280;5493;48.884;8.338;2022-12-07T05:29:49;100364.63;;;5.92;100.00
10881;BME280;5493;48.884;8.338;2022-12-07T05:32:16;100366.38;;;5.71;100.00
10881;BME280;5493;48.884;8.338;2022-12-07T05:34:42;100360.53;;;5.82;100.00
10881;BME280;5493;48.884;8.338;2022-12-07T05:37:09;100350.13;;;5.72;100.00
10881;BME280;5493;48.884;8.338;2022-12-07T05:39:36;100358.88;;;5.81;100.00
10881;BME280;5493;48.884;8.338;2022-12-07T05:42:03;100359.50;;;5.83;100.00
10881;BME280;5493;48.884;8.338;2022-12-07T05:44:39;100361.72;;;5.65;100.00
10881;BME280;5493;48.884;8.338;2022-12-07T05:47:06;100362.75;;;5.78;100.00
10881;BME280;5493;48.884;8.338;2022-12-07T05:49:33;100368.00;;;5.72;100.00
10881;BME280;5493;48.884;8.338;2022-12-07T05:52:01;100364.00;;;5.82;100.00
10881;BME280;5493;48.884;8.338;2022-12-07T05:54:27;100361.09;;;5.92;100.00
10881;BME280;5493;48.884;8.338;2022-12-07T05:56:54;100359.56;;;6.04;100.00
10881;BME280;5493;48.884;8.338;2022-12-07T05:59:21;100353.06;;;5.92;100.00
10881;BME280;5493;48.884;8.338;2022-12-07T06:01:51;100354.75;;;5.93;100.00
10881;BME280;5493;48.884;8.338;2022-12-07T06:04:19;100353.94;;;6.14;100.00
10881;BME280;5493;48.884;8.338;2022-12-07T06:06:46;100354.44;;;6.03;100.00
10881;BME280;5493;48.884;8.338;2022-12-07T06:09:13;100351.44;;;6.12;100.00
10881;BME280;5493;48.884;8.338;2022-12-07T06:11:40;100360.06;;;6.08;100.00
10881;BME280;5493;48.884;8.338;2022-12-07T06:14:24;100357.56;;;6.06;100.00
10881;BME280;5493;48.884;8.338;2022-12-07T06:16:52;100355.78;;;6.13;100.00
10881;BME280;5493;48.884;8.338;2022-12-07T06:19:19;100353.94;;;6.14;100.00
10881;BME280;5493;48.884;8.338;2022-12-07T06:21:46;100361.16;;;5.84;100.00
10881;BME280;5493;48.884;8.338;2022-12-07T06:24:14;100360.09;;;5.93;100.00
10881;BME280;5493;48.884;8.338;2022-12-07T06:26:40;100361.72;;;5.94;100.00
10881;BME280;5493;48.884;8.338;2022-12-07T06:29:07;100358.31;;;5.85;100.00
10881;BME280;5493;48.884;8.338;2022-12-07T06:31:35;100356.34;;;6.09;100.00
10881;BME280;5493;48.884;8.338;2022-12-07T06:34:05;100364.53;;;5.86;100.00
10881;BME280;5493;48.884;8.338;2022-12-07T06:36:32;100360.34;;;5.98;100.00
10881;BME280;5493;48.884;8.338;2022-12-07T06:38:59;100361.34;;;5.82;100.00
10881;BME280;5493;48.884;8.338;2022-12-07T06:41:25;100373.47;;;5.78;100.00
10881;BME280;5493;48.884;8.338;2022-12-07T06:43:52;100366.84;;;5.89;100.00
10881;BME280;5493;48.884;8.338;2022-12-07T06:46:18;100369.03;;;5.71;100.00
10881;BME280;5493;48.884;8.338;2022-12-07T06:48:45;100369.97;;;5.92;100.00
10881;BME280;5493;48.884;8.338;2022-12-07T06:51:13;100366.38;;;5.71;100.00
10881;BME280;5493;48.884;8.338;2022-12-07T06:53:40;100373.09;;;5.81;100.00
10881;BME280;5493;48.884;8.338;2022-12-07T06:56:07;100365.25;;;5.94;100.00
10881;BME280;5493;48.884;8.338;2022-12-07T06:58:34;100364.63;;;5.92;100.00
10881;BME280;5493;48.884;8.338;2022-12-07T07:01:00;100361.81;;;6.01;100.00
10881;BME280;5493;48.884;8.338;2022-12-07T07:03:27;100362.00;;;5.84;100.00
10881;BME280;5493;48.884;8.338;2022-12-07T07:05:53;100365.50;;;5.85;100.00
10881;BME280;5493;48.884;8.338;2022-12-07T07:08:21;100359.41;;;6.06;100.00
10881;BME280;5493;48.884;8.338;2022-12-07T07:10:48;100369.22;;;5.99;100.00
10881;BME280;5493;48.884;8.338;2022-12-07T07:13:14;100375.84;;;6.03;100.00
10881;BME280;5493;48.884;8.338;2022-12-07T07:15:41;100375.38;;;5.99;100.00
10881;BME280;5493;48.884;8.338;2022-12-07T07:18:08;100374.38;;;6.00;100.00
10881;BME280;5493;48.884;8.338;2022-12-07T07:20:34;100373.38;;;5.86;100.00
10881;BME280;5493;48.884;8.338;2022-12-07T07:23:01;100373.34;;;5.72;100.00
10881;BME280;5493;48.884;8.338;2022-12-07T07:25:29;100367.66;;;5.89;100.00
10881;BME280;5493;48.884;8.338;2022-12-07T07:27:55;100371.81;;;5.92;100.00
10881;BME280;5493;48.884;8.338;2022-12-07T07:30:22;100371.53;;;5.87;100.00
10881;BME280;5493;48.884;8.338;2022-12-07T07:32:49;100378.44;;;5.81;100.00
10881;BME280;5493;48.884;8.338;2022-12-07T07:35:16;100376.22;;;5.70;100.00
10881;BME280;5493;48.884;8.338;2022-12-07T07:37:42;100382.56;;;5.84;100.00
10881;BME280;5493;48.884;8.338;2022-12-07T07:40:10;100384.25;;;5.85;100.00
10881;BME280;5493;48.884;8.338;2022-12-07T07:42:38;100374.47;;;5.92;100.00
10881;BME280;5493;48.884;8.338;2022-12-07T07:45:05;100381.28;;;6.09;100.00
10881;BME280;5493;48.884;8.338;2022-12-07T07:47:32;100383.25;;;5.71;100.00
10881;BME280;5493;48.884;8.338;2022-12-07T07:49:59;100383.78;;;5.81;100.00
10881;BME280;5493;48.884;8.338;2022-12-07T07:52:26;100389.13;;;5.81;100.00
10881;BME280;5493;48.884;8.338;2022-12-07T07:54:52;100395.06;;;5.91;100.00
10881;BME280;5493;48.884;8.338;2022-12-07T07:57:19;100397.91;;;5.90;100.00
10881;BME280;5493;48.884;8.338;2022-12-07T07:59:47;100399.56;;;5.76;100.00
10881;BME280;5493;48.884;8.338;2022-12-07T08:02:15;100396.69;;;5.78;100.00
10881;BME280;5493;48.884;8.338;2022-12-07T08:04:42;100389.53;;;5.93;100.00
10881;BME280;5493;48.884;8.338;2022-12-07T08:07:09;100396.03;;;5.76;100.00
10881;BME280;5493;48.884;8.338;2022-12-07T08:09:36;100388.22;;;5.74;100.00
10881;BME280;5493;48.884;8.338;2022-12-07T08:12:03;100388.09;;;5.82;100.00
10881;BME280;5493;48.884;8.338;2022-12-07T08:14:30;100399.84;;;5.81;100.00
10881;BME280;5493;48.884;8.338;2022-12-07T08:16:58;100401.03;;;5.93;100.00
10881;BME280;5493;48.884;8.338;2022-12-07T08:19:24;100392.94;;;5.87;100.00
10881;BME280;5493;48.884;8.338;2022-12-07T08:21:51;100394.19;;;5.76;100.00
10881;BME280;5493;48.884;8.338;2022-12-07T08:24:20;100410.78;;;5.72;100.00
10881;BME280;5493;48.884;8.338;2022-12-07T08:26:47;100410.47;;;5.60;100.00
10881;BME280;5493;48.884;8.338;2022-12-07T08:29:15;100405.47;;;5.86;100.00
10881;BME280;5493;48.884;8.338;2022-12-07T08:31:41;100408.03;;;5.65;100.00
10881;BME280;5493;48.884;8.338;2022-12-07T08:34:11;100404.44;;;5.73;100.00
10881;BME280;5493;48.884;8.338;2022-12-07T08:36:38;100400.09;;;5.57;100.00
10881;BME280;5493;48.884;8.338;2022-12-07T08:39:05;100413.94;;;5.61;100.00
10881;BME280;5493;48.884;8.338;2022-12-07T08:41:32;100417.19;;;5.56;100.00
10881;BME280;5493;48.884;8.338;2022-12-07T08:43:59;100414.06;;;5.67;100.00
10881;BME280;5493;48.884;8.338;2022-12-07T08:46:29;100421.03;;;5.68;100.00
10881;BME280;5493;48.884;8.338;2022-12-07T08:49:02;100414.06;;;5.67;100.00
10881;BME280;5493;48.884;8.338;2022-12-07T08:51:31;100415.44;;;5.78;100.00
10881;BME280;5493;48.884;8.338;2022-12-07T08:53:58;100410.81;;;6.01;100.00
10881;BME280;5493;48.884;8.338;2022-12-07T08:56:26;100418.66;;;6.03;100.00
10881;BME280;5493;48.884;8.338;2022-12-07T08:58:53;100421.78;;;6.06;100.00
10881;BME280;5493;48.884;8.338;2022-12-07T09:01:20;100426.22;;;5.99;100.00
10881;BME280;5493;48.884;8.338;2022-12-07T09:03:46;100417.84;;;5.87;100.00
10881;BME280;5493;48.884;8.338;2022-12-07T09:06:13;100415.69;;;5.98;100.00
10881;BME280;5493;48.884;8.338;2022-12-07T09:08:45;100421.41;;;6.09;100.00
10881;BME280;5493;48.884;8.338;2022-12-07T09:11:12;100425.56;;;6.12;100.00
10881;BME280;5493;48.884;8.338;2022-12-07T09:13:39;100428.38;;;5.89;100.00
10881;BME280;5493;48.884;8.338;2022-12-07T09:16:06;100419.28;;;5.75;100.00
10881;BME280;5493;48.884;8.338;2022-12-07T09:18:32;100426.22;;;5.99;100.00
10881;BME280;5493;48.884;8.338;2022-12-07T09:20:59;100428.16;;;6.05;100.00
10881;BME280;5493;48.884;8.338;2022-12-07T09:23:25;100422.66;;;5.92;100.00
10881;BME280;5493;48.884;8.338;2022-12-07T09:25:53;100419.19;;;5.83;100.00
10881;BME280;5493;48.884;8.338;2022-12-07T09:28:20;100418.97;;;5.93;100.00
10881;BME280;5493;48.884;8.338;2022-12-07T09:30:47;100422.72;;;5.84;100.00
10881;BME280;5493;48.884;8.338;2022-12-07T09:33:14;100425.22;;;6.00;100.00
10881;BME280;5493;48.884;8.338;2022-12-07T09:35:44;100424.53;;;5.83;100.00
10881;BME280;5493;48.884;8.338;2022-12-07T09:38:11;100420.66;;;6.15;100.00
10881;BME280;5493;48.884;8.338;2022-12-07T09:40:41;100433.25;;;6.15;100.00
10881;BME280;5493;48.884;8.338;2022-12-07T09:43:14;100425.56;;;6.12;100.00
10881;BME280;5493;48.884;8.338;2022-12-07T09:45:41;100421.31;;;6.17;100.00
10881;BME280;5493;48.884;8.338;2022-12-07T09:48:16;100417.00;;;6.02;100.00
10881;BME280;5493;48.884;8.338;2022-12-07T09:50:45;100415.31;;;6.15;100.00
10881;BME280;5493;48.884;8.338;2022-12-07T09:53:15;100410.09;;;6.07;100.00
10881;BME280;5493;48.884;8.338;2022-12-07T09:55:46;100397.56;;;6.29;100.00
10881;BME280;5493;48.884;8.338;2022-12-07T09:58:19;100403.13;;;6.13;100.00
10881;BME280;5493;48.884;8.338;2022-12-07T10:00:46;100396.38;;;6.17;100.00
10881;BME280;5493;48.884;8.338;2022-12-07T10:03:13;100396.47;;;6.23;100.00
10881;BME280;5493;48.884;8.338;2022-12-07T10:05:43;100405.63;;;6.50;100.00
10881;BME280;5493;48.884;8.338;2022-12-07T10:08:12;100397.88;;;6.40;100.00
10881;BME280;5493;48.884;8.338;2022-12-07T10:10:39;100401.84;;;6.44;100.00
10881;BME280;5493;48.884;8.338;2022-12-07T10:13:08;100392.53;;;6.40;100.00
10881;BME280;5493;48.884;8.338;2022-12-07T10:15:46;100392.16;;;6.43;100.00
10881;BME280;5493;48.884;8.338;2022-12-07T10:18:28;100392.97;;;6.44;100.00
10881;BME280;5493;48.884;8.338;2022-12-07T10:21:13;100388.44;;;6.66;100.00
10881;BME280;5493;48.884;8.338;2022-12-07T10:23:42;100388.44;;;6.44;100.00
10881;BME280;5493;48.884;8.338;2022-12-07T10:26:29;100388.78;;;6.56;100.00
10881;BME280;5493;48.884;8.338;2022-12-07T10:28:59;100379.53;;;6.59;100.00
10881;BME280;5493;48.884;8.338;2022-12-07T10:31:28;100385.16;;;6.64;100.00
10881;BME280;5493;48.884;8.338;2022-12-07T10:33:56;100384.47;;;6.76;100.00
10881;BME280;5493;48.884;8.338;2022-12-07T10:36:25;100383.53;;;6.69;100.00
10881;BME280;5493;48.884;8.338;2022-12-07T10:38:58;100393.50;;;6.54;100.00
10881;BME280;5493;48.884;8.338;2022-12-07T10:41:25;100384.38;;;6.70;100.00
10881;BME280;5493;48.884;8.338;2022-12-07T10:43:54;100378.19;;;6.69;100.00
10881;BME280;5493;48.884;8.338;2022-12-07T10:46:49;100375.19;;;6.79;100.00
10881;BME280;5493;48.884;8.338;2022-12-07T10:52:44;100372.53;;;6.79;100.00
10881;BME280;5493;48.884;8.338;2022-12-07T10:55:21;100368.63;;;6.81;100.00
10881;BME280;5493;48.884;8.338;2022-12-07T10:57:58;100370.91;;;6.84;100.00
10881;BME280;5493;48.884;8.338;2022-12-07T11:00:31;100362.63;;;6.79;100.00
10881;BME280;5493;48.884;8.338;2022-12-07T11:03:25;100365.38;;;6.65;100.00
10881;BME280;5493;48.884;8.338;2022-12-07T11:06:03;100365.94;;;6.81;100.00
10881;BME280;5493;48.884;8.338;2022-12-07T11:08:47;100357.03;;;7.02;100.00
10881;BME280;5493;48.884;8.338;2022-12-07T11:11:21;100359.69;;;7.02;100.00
10881;BME280;5493;48.884;8.338;2022-12-07T11:13:56;100348.34;;;7.00;100.00
10881;BME280;5493;48.884;8.338;2022-12-07T11:16:34;100345.63;;;6.93;100.00
10881;BME280;5493;48.884;8.338;2022-12-07T11:22:03;100337.94;;;6.63;100.00
10881;BME280;5493;48.884;8.338;2022-12-07T11:24:36;100339.03;;;6.96;100.00
10881;BME280;5493;48.884;8.338;2022-12-07T11:27:13;100332.84;;;6.68;100.00
10881;BME280;5493;48.884;8.338;2022-12-07T11:30:06;100326.19;;;6.85;100.00
10881;BME280;5493;48.884;8.338;2022-12-07T11:32:44;100325.13;;;6.79;100.00
10881;BME280;5493;48.884;8.338;2022-12-07T11:35:22;100323.22;;;6.52;100.00
10881;BME280;5493;48.884;8.338;2022-12-07T11:37:55;100312.84;;;6.42;100.00
10881;BME280;5493;48.884;8.338;2022-12-07T11:40:26;100318.31;;;6.56;100.00
10881;BME280;5493;48.884;8.338;2022-12-07T11:42:59;100316.09;;;6.38;100.00
10881;BME280;5493;48.884;8.338;2022-12-07T11:45:30;100315.47;;;6.36;100.00
10881;BME280;5493;48.884;8.338;2022-12-07T11:48:00;100316.66;;;6.55;100.00
10881;BME280;5493;48.884;8.338;2022-12-07T11:50:33;100315.84;;;6.54;100.00
10881;BME280;5493;48.884;8.338;2022-12-07T11:53:03;100309.88;;;6.80;100.00
10881;BME280;5493;48.884;8.338;2022-12-07T11:55:40;100310.28;;;6.56;100.00
10881;BME280;5493;48.884;8.338;2022-12-07T11:58:18;100311.28;;;6.76;100.00
10881;BME280;5493;48.884;8.338;2022-12-07T12:00:48;100305.88;;;6.48;100.00
10881;BME280;5493;48.884;8.338;2022-12-07T12:03:20;100310.19;;;6.70;100.00
10881;BME280;5493;48.884;8.338;2022-12-07T12:05:56;100305.28;;;6.74;100.00
10881;BME280;5493;48.884;8.338;2022-12-07T12:08:27;100304.69;;;6.78;100.00
10881;BME280;5493;48.884;8.338;2022-12-07T12:11:00;100298.84;;;6.68;100.00
10881;BME280;5493;48.884;8.338;2022-12-07T12:13:51;100301.28;;;6.63;100.00
10881;BME280;5493;48.884;8.338;2022-12-07T12:16:52;100298.31;;;6.79;100.00
10881;BME280;5493;48.884;8.338;2022-12-07T12:19:29;100297.72;;;6.56;100.00
10881;BME280;5493;48.884;8.338;2022-12-07T12:22:05;100297.84;;;6.48;100.00
10881;BME280;5493;48.884;8.338;2022-12-07T12:24:33;100292.00;;;6.66;100.00
10881;BME280;5493;48.884;8.338;2022-12-07T12:27:04;100287.69;;;6.65;100.00
10881;BME280;5493;48.884;8.338;2022-12-07T12:29:34;100289.16;;;6.67;100.00
10881;BME280;5493;48.884;8.338;2022-12-07T12:32:10;100288.09;;;6.40;100.00
10881;BME280;5493;48.884;8.338;2022-12-07T12:34:41;100284.00;;;6.44;100.00
10881;BME280;5493;48.884;8.338;2022-12-07T12:37:41;100288.72;;;6.64;100.00
10881;BME280;5493;48.884;8.338;2022-12-07T12:43:41;100276.50;;;6.55;100.00
10881;BME280;5493;48.884;8.338;2022-12-07T12:49:34;100287.13;;;6.48;100.00
10881;BME280;5493;48.884;8.338;2022-12-07T12:55:15;100277.31;;;6.34;100.00
10881;BME280;5493;48.884;8.338;2022-12-07T12:57:45;100271.13;;;6.55;100.00
10881;BME280;5493;48.884;8.338;2022-12-07T13:00:17;100280.44;;;6.37;100.00
10881;BME280;5493;48.884;8.338;2022-12-07T13:02:49;100265.19;;;6.59;100.00
10881;BME280;5493;48.884;8.338;2022-12-07T13:05:20;100273.41;;;6.58;100.00
10881;BME280;5493;48.884;8.338;2022-12-07T13:07:54;100262.63;;;6.72;100.00
10881;BME280;5493;48.884;8.338;2022-12-07T13:10:38;100260.50;;;6.68;100.00
10881;BME280;5493;48.884;8.338;2022-12-07T13:13:33;100261.19;;;6.49;100.00
10881;BME280;5493;48.884;8.338;2022-12-07T13:22:48;100257.00;;;6.67;100.00
10881;BME280;5493;48.884;8.338;2022-12-07T13:25:21;100252.41;;;6.33;100.00
10881;BME280;5493;48.884;8.338;2022-12-07T13:27:57;100245.56;;;6.52;100.00
10881;BME280;5493;48.884;8.338;2022-12-07T13:30:24;100248.00;;;6.47;100.00
10881;BME280;5493;48.884;8.338;2022-12-07T13:32:55;100243.81;;;6.17;100.00
10881;BME280;5493;48.884;8.338;2022-12-07T13:35:33;100239.66;;;6.35;100.00
10881;BME280;5493;48.884;8.338;2022-12-07T13:38:02;100241.09;;;6.38;100.00